Time;durP1;ratioP1;P1;durP2;ratioP2;P2;SDS_P1;SDS_P2;PMS_P1;PMS_P2;Temp;Humidity;BMP_temperature;BMP_pressure;BME280_temperature;BME280_humidity;BME280_pressure;Samples;Min_cycle;Max_cycle;Signal;HPM_P1;HPM_P2
2023/10/21 00:02:24;;;;;;;15.70;7.20;;;;;;;16.92;92.00;98469.39;79523;1296;3013859;-66
2023/10/21 00:04:52;;;;;;;20.20;8.10;;;;;;;16.73;92.49;98475.58;79430;1295;3012166;-69
2023/10/21 00:07:19;;;;;;;19.60;8.20;;;;;;;16.46;93.63;98477.05;78242;1295;3027922;-67
2023/10/21 00:09:46;;;;;;;21.00;5.50;;;;;;;16.31;95.14;98483.60;79688;1295;3020833;-67
2023/10/21 00:12:12;;;;;;;15.20;6.10;;;;;;;16.58;94.65;98475.61;79618;1298;3011835;-63
2023/10/21 00:14:41;;;;;;;16.40;6.70;;;;;;;16.78;92.68;98467.11;78401;1300;3027012;-73
2023/10/21 00:17:07;;;;;;;23.10;8.40;;;;;;;16.60;93.23;98468.23;79555;1294;3013715;-70
2023/10/21 00:19:34;;;;;;;22.20;8.60;;;;;;;16.47;94.13;98470.94;79579;1295;3013256;-64
2023/10/21 00:22:02;;;;;;;16.80;5.40;;;;;;;16.32;95.03;98473.70;78263;1294;3029052;-67
2023/10/21 00:24:28;;;;;;;18.10;5.90;;;;;;;16.59;94.52;98472.59;79496;1294;3013378;-66
2023/10/21 00:26:55;;;;;;;17.60;6.90;;;;;;;16.86;91.93;98466.48;79469;1298;3011647;-65
2023/10/21 00:29:22;;;;;;;18.10;7.60;;;;;;;16.75;92.61;98456.93;78488;1295;3028646;-63
2023/10/21 00:31:49;;;;;;;22.30;8.00;;;;;;;16.40;94.43;98452.39;79530;1297;3018701;-67
2023/10/21 00:34:17;;;;;;;19.80;5.70;;;;;;;16.14;96.88;98455.67;79653;1293;3011902;-66
2023/10/21 00:36:44;;;;;;;16.90;7.00;;;;;;;16.33;96.40;98452.31;78278;1298;3068339;-66
2023/10/21 00:39:11;;;;;;;15.10;7.40;;;;;;;16.61;94.46;98454.64;79377;1292;3012975;-71
2023/10/21 00:41:39;;;;;;;17.10;8.60;;;;;;;16.58;93.89;98446.11;79610;1292;3011858;-71
2023/10/21 00:44:06;;;;;;;17.00;7.50;;;;;;;16.30;95.69;98449.45;78338;1295;3025236;-66
2023/10/21 00:46:33;;;;;;;12.90;5.10;;;;;;;16.05;97.60;98449.85;79570;1295;3018453;-67
2023/10/21 00:49:00;;;;;;;14.40;6.40;;;;;;;16.49;96.02;98459.38;79410;1296;3011520;-65
2023/10/21 00:51:27;;;;;;;19.70;7.60;;;;;;;16.55;94.78;98454.52;78340;1298;3026082;-68
2023/10/21 00:53:55;;;;;;;21.70;7.40;;;;;;;16.40;95.47;98458.35;79366;1298;3012835;-68
2023/10/21 00:56:21;;;;;;;24.30;9.50;;;;;;;16.29;95.73;98460.30;79653;1292;3011716;-70
2023/10/21 00:58:49;;;;;;;14.60;5.80;;;;;;;16.11;97.81;98473.04;78222;1299;3029007;-68
2023/10/21 01:01:16;;;;;;;17.70;7.00;;;;;;;16.44;96.34;98463.66;79618;1292;3018989;-70
2023/10/21 01:03:42;;;;;;;20.70;8.10;;;;;;;16.56;95.08;98466.13;79353;1293;3013656;-64
2023/10/21 01:06:10;;;;;;;20.90;7.90;;;;;;;16.56;94.95;98458.70;78380;1298;3026467;-67
2023/10/21 01:08:45;;;;;;;20.70;8.30;;;;;;;16.29;96.34;98454.70;79628;1292;3013949;-69
2023/10/21 01:11:13;;;;;;;13.00;5.30;;;;;;;16.18;97.80;98463.00;78337;1298;3049735;-65
2023/10/21 01:13:42;;;;;;;14.00;6.50;;;;;;;16.49;96.22;98461.35;79485;1293;3013556;-66
2023/10/21 01:16:11;;;;;;;23.70;8.10;;;;;;;16.59;95.14;98458.25;78883;1298;3011538;-68
2023/10/21 01:18:39;;;;;;;15.30;7.60;;;;;;;16.48;95.13;98465.27;79464;1299;3013520;-68
2023/10/21 01:21:05;;;;;;;21.80;9.20;;;;;;;16.30;96.66;98464.67;79556;1292;3011903;-64
2023/10/21 01:23:34;;;;;;;15.20;5.00;;;;;;;16.12;98.41;98459.08;78292;1298;3051487;-66
2023/10/21 01:26:01;;;;;;;19.10;6.20;;;;;;;16.55;96.51;98455.91;79624;1294;3012873;-65
2023/10/21 01:28:29;;;;;;;17.70;8.00;;;;;;;16.73;94.92;98463.46;79526;1293;3012990;-67
2023/10/21 01:30:57;;;;;;;25.40;8.80;;;;;;;16.50;96.05;98471.18;78314;1298;3049857;-67
2023/10/21 01:33:23;;;;;;;19.30;8.70;;;;;;;16.34;96.97;98466.20;79899;1294;3013644;-68
2023/10/21 01:35:50;;;;;;;16.70;5.90;;;;;;;16.26;97.08;98466.98;79663;1293;3011452;-69
2023/10/21 01:38:21;;;;;;;14.60;6.20;;;;;;;16.69;96.10;98471.36;78531;1296;3028609;-68
2023/10/21 01:40:49;;;;;;;15.80;7.40;;;;;;;16.76;94.18;98465.14;79498;1295;3013501;-63
2023/10/21 01:43:17;;;;;;;21.70;8.60;;;;;;;16.52;95.48;98463.67;78316;1298;3050568;-67
2023/10/21 01:45:44;;;;;;;19.20;8.30;;;;;;;16.26;97.41;98455.05;79751;1298;3013267;-65
2023/10/21 01:48:10;;;;;;;21.90;5.60;;;;;;;16.21;98.44;98449.70;79502;1298;3013268;-66
2023/10/21 01:50:38;;;;;;;14.60;6.90;;;;;;;16.52;97.01;98449.61;78283;1298;3028118;-60
2023/10/21 01:53:05;;;;;;;17.80;7.40;;;;;;;16.53;96.44;98446.05;79560;1298;3012790;-70
2023/10/21 01:55:32;;;;;;;16.90;8.10;;;;;;;16.56;96.05;98447.03;79536;1292;3011639;-70
2023/10/21 01:57:59;;;;;;;13.50;7.20;;;;;;;16.29;97.76;98454.01;78251;1298;3025804;-63
2023/10/21 02:00:26;;;;;;;15.60;5.60;;;;;;;16.14;98.91;98475.95;79338;1294;3012822;-65
2023/10/21 02:02:54;;;;;;;15.20;6.30;;;;;;;16.44;98.08;98477.95;79345;1293;3011861;-64
2023/10/21 02:05:22;;;;;;;18.20;6.70;;;;;;;16.51;96.06;98481.29;78162;1298;3054237;-67
2023/10/21 02:07:50;;;;;;;18.40;7.10;;;;;;;16.49;96.64;98484.89;79548;1292;3013251;-67
2023/10/21 02:10:17;;;;;;;17.00;4.70;;;;;;;16.32;97.91;98487.75;79554;1298;3011749;-68
2023/10/21 02:12:45;;;;;;;18.60;5.70;;;;;;;16.58;96.50;98492.05;78249;1298;3050372;-61
2023/10/21 02:15:14;;;;;;;16.20;7.20;;;;;;;16.42;97.06;98487.16;79588;1295;3013506;-64
2023/10/21 02:17:42;;;;;;;16.10;6.70;;;;;;;16.28;97.80;98477.23;79581;1298;3012995;-63
2023/10/21 02:20:12;;;;;;;17.40;6.60;;;;;;;16.07;98.91;98489.92;78218;1298;3053708;-65
2023/10/21 02:22:39;;;;;;;13.80;5.00;;;;;;;16.14;99.50;98487.08;79551;1297;3011517;-61
2023/10/21 02:25:07;;;;;;;20.20;5.60;;;;;;;16.33;98.34;98478.31;79416;1293;3011534;-65
2023/10/21 02:27:35;;;;;;;15.20;6.20;;;;;;;16.36;97.27;98459.42;78211;1297;3049713;-64
2023/10/21 02:30:04;;;;;;;19.30;6.40;;;;;;;16.30;97.42;98458.67;79639;1298;3013512;-65
2023/10/21 02:32:31;;;;;;;17.90;6.60;;;;;;;16.35;97.02;98449.00;79569;1293;3011904;-65
2023/10/21 02:34:59;;;;;;;13.80;5.20;;;;;;;16.06;99.29;98441.95;78182;1299;3053052;-62
2023/10/21 02:37:26;;;;;;;16.90;5.90;;;;;;;16.40;98.30;98454.15;79587;1295;3019528;-65
2023/10/21 02:39:52;;;;;;;20.10;6.70;;;;;;;16.53;96.67;98465.13;79559;1297;3012473;-61
2023/10/21 02:42:20;;;;;;;16.80;6.90;;;;;;;16.40;96.87;98457.98;78344;1298;3028300;-64
2023/10/21 02:44:51;;;;;;;19.70;5.60;;;;;;;16.38;96.64;98468.61;79473;1292;3012857;-64
2023/10/21 02:47:19;;;;;;;17.50;5.60;;;;;;;16.36;97.38;98464.23;78294;1298;3052564;-64
2023/10/21 02:49:46;;;;;;;18.00;6.80;;;;;;;16.46;97.08;98463.53;79544;1298;3018772;-63
2023/10/21 02:52:13;;;;;;;16.30;6.70;;;;;;;16.51;96.46;98461.17;79632;1295;3011621;-64
2023/10/21 02:54:41;;;;;;;18.10;6.90;;;;;;;16.38;96.70;98455.90;78382;1297;3026546;-64
2023/10/21 02:57:08;;;;;;;19.50;5.70;;;;;;;16.21;98.21;98463.45;79530;1293;3013721;-67
2023/10/21 02:59:35;;;;;;;13.30;6.10;;;;;;;16.40;97.95;98449.36;79510;1295;3011680;-69
2023/10/21 03:02:03;;;;;;;25.40;7.10;;;;;;;16.65;96.30;98453.04;78367;1295;3026622;-63
2023/10/21 03:04:30;;;;;;;25.20;7.50;;;;;;;16.43;96.64;98460.49;79716;1298;3013157;-69
2023/10/21 03:06:57;;;;;;;22.20;5.50;;;;;;;16.16;98.56;98453.87;79553;1293;3011681;-69
2023/10/21 03:09:26;;;;;;;20.40;5.50;;;;;;;16.09;99.90;98460.93;78231;1298;3057661;-65
2023/10/21 03:11:54;;;;;;;12.30;5.50;;;;;;;16.31;98.67;98461.38;79633;1294;3012955;-67
2023/10/21 03:14:20;;;;;;;18.80;6.30;;;;;;;16.58;96.65;98455.70;79601;1295;3012826;-61
2023/10/21 03:16:48;;;;;;;19.10;7.10;;;;;;;16.27;97.62;98454.52;78182;1298;3051741;-66
2023/10/21 03:19:15;;;;;;;13.40;5.10;;;;;;;16.10;99.58;98446.51;79478;1295;3013542;-64
2023/10/21 03:21:42;;;;;;;14.90;6.00;;;;;;;16.45;97.77;98454.48;79499;1298;3013448;-66
2023/10/21 03:24:10;;;;;;;21.10;6.80;;;;;;;16.67;95.77;98444.50;78311;1299;3057429;-63
2023/10/21 03:27:15;;;;;;;18.50;7.50;;;;;;;16.55;96.11;98436.76;80157;1298;3013769;-63
2023/10/21 03:29:42;;;;;;;19.00;6.90;;;;;;;16.33;97.41;98440.48;79121;1299;3013669;-65
2023/10/21 03:32:09;;;;;;;20.10;6.00;;;;;;;16.14;99.11;98446.45;79316;1302;3013179;-65
2023/10/21 03:34:37;;;;;;;15.80;5.70;;;;;;;16.42;97.76;98438.00;77961;1298;3051447;-66
2023/10/21 03:37:04;;;;;;;16.90;7.00;;;;;;;16.65;96.16;98428.60;79195;1304;3013078;-65
2023/10/21 03:39:31;;;;;;;16.90;7.00;;;;;;;16.52;96.05;98425.55;77336;1303;3182952;-63
2023/10/21 03:41:59;;;;;;;14.80;7.00;;;;;;;16.32;97.62;98428.80;78182;1301;3026895;-65
2023/10/21 03:44:26;;;;;;;20.00;5.00;;;;;;;16.16;99.19;98426.11;79300;1298;3013111;-64
2023/10/21 03:46:53;;;;;;;14.80;6.00;;;;;;;16.57;97.45;98422.87;79360;1298;3011378;-71
2023/10/21 03:49:21;;;;;;;17.90;6.50;;;;;;;16.68;95.86;98426.02;78157;1300;3028157;-67
2023/10/21 03:51:48;;;;;;;19.20;7.00;;;;;;;16.56;95.76;98433.80;79331;1297;3013744;-67
2023/10/21 03:54:14;;;;;;;15.80;7.00;;;;;;;16.50;96.74;98441.42;79312;1296;3012972;-65
2023/10/21 03:56:42;;;;;;;14.90;4.70;;;;;;;16.19;98.37;98431.11;77996;1301;3028141;-64
2023/10/21 03:59:08;;;;;;;12.90;5.80;;;;;;;16.38;98.20;98416.45;79379;1295;3012737;-66
2023/10/21 04:01:35;;;;;;;16.80;6.70;;;;;;;16.55;96.82;98417.82;79406;1300;3011588;-62
2023/10/21 04:04:03;;;;;;;17.50;7.20;;;;;;;16.47;97.03;98430.99;78241;1300;3025985;-68
2023/10/21 04:06:30;;;;;;;17.10;7.70;;;;;;;16.20;99.04;98445.36;79438;1296;3013569;-61
2023/10/21 04:08:56;;;;;;;16.80;5.40;;;;;;;16.03;100.00;98450.59;79209;1301;3013270;-64
2023/10/21 04:11:24;;;;;;;18.70;6.30;;;;;;;16.45;99.13;98435.92;78007;1301;3049217;-65
2023/10/21 04:13:51;;;;;;;17.80;7.60;;;;;;;16.45;98.11;98435.62;79380;1296;3013628;-63
2023/10/21 04:16:17;;;;;;;18.70;8.10;;;;;;;16.43;98.46;98433.32;79148;1301;3012929;-66
2023/10/21 04:18:45;;;;;;;14.80;6.30;;;;;;;16.35;98.38;98441.58;78200;1301;3028703;-64
2023/10/21 04:21:11;;;;;;;16.90;5.60;;;;;;;16.20;99.48;98450.63;79294;1298;3013444;-66
2023/10/21 04:23:38;;;;;;;19.80;6.50;;;;;;;16.45;99.39;98452.75;79269;1296;3011707;-69
2023/10/21 04:26:06;;;;;;;17.30;7.50;;;;;;;16.58;97.69;98452.17;78266;1300;3026982;-64
2023/10/21 04:28:33;;;;;;;16.20;7.30;;;;;;;16.50;98.59;98457.92;79337;1296;3013121;-66
2023/10/21 04:31:00;;;;;;;14.30;5.70;;;;;;;16.61;97.06;98450.04;79318;1298;3013290;-66
2023/10/21 04:33:29;;;;;;;13.80;6.10;;;;;;;16.38;99.02;98462.68;78233;1301;3051431;-63
2023/10/21 04:35:56;;;;;;;16.90;7.20;;;;;;;16.63;98.64;98464.57;79510;1298;3018856;-64
2023/10/21 04:38:22;;;;;;;25.10;7.80;;;;;;;16.66;96.47;98467.58;79693;1295;3011630;-64
2023/10/21 04:40:50;;;;;;;17.60;8.90;;;;;;;16.55;96.92;98475.25;78193;1295;3026446;-65
2023/10/21 04:43:17;;;;;;;15.40;6.10;;;;;;;16.29;99.09;98488.77;79548;1295;3013736;-66
2023/10/21 04:45:43;;;;;;;18.60;7.40;;;;;;;16.57;98.81;98482.70;79288;1297;3011545;-63
2023/10/21 04:48:11;;;;;;;18.10;7.50;;;;;;;16.81;96.66;98474.70;78163;1301;3029149;-64
2023/10/21 04:50:38;;;;;;;19.70;8.60;;;;;;;16.69;97.16;98471.20;79341;1300;3012553;-66
2023/10/21 04:53:04;;;;;;;20.30;9.00;;;;;;;16.60;98.08;98474.52;79573;1299;3013164;-65
2023/10/21 04:55:32;;;;;;;19.10;6.30;;;;;;;16.39;99.66;98475.27;78179;1295;3028535;-62
2023/10/21 04:57:58;;;;;;;16.40;6.70;;;;;;;16.60;99.36;98460.21;79673;1298;3013632;-65
2023/10/21 05:00:25;;;;;;;17.40;8.30;;;;;;;16.71;98.00;98462.27;79438;1294;3013691;-65
2023/10/21 05:02:52;;;;;;;20.30;8.60;;;;;;;16.70;97.91;98470.88;78433;1298;3026327;-65
2023/10/21 05:05:19;;;;;;;22.20;9.30;;;;;;;16.48;99.08;98492.70;79476;1295;3013342;-67
2023/10/21 05:07:45;;;;;;;12.50;6.60;;;;;;;16.28;100.00;98505.70;79490;1295;3011649;-66
2023/10/21 05:10:13;;;;;;;14.30;7.10;;;;;;;16.60;99.53;98498.92;78419;1295;3029263;-63
2023/10/21 05:12:40;;;;;;;22.30;8.80;;;;;;;16.71;98.51;98499.63;79406;1295;3018618;-65
2023/10/21 05:15:07;;;;;;;21.00;10.30;;;;;;;16.52;99.63;98506.52;79611;1295;3013562;-66
2023/10/21 05:17:35;;;;;;;24.80;9.90;;;;;;;16.44;100.00;98516.83;78273;1295;3052152;-64
2023/10/21 05:20:03;;;;;;;19.80;7.50;;;;;;;16.27;100.00;98520.21;79783;1295;3018340;-64
2023/10/21 05:22:29;;;;;;;19.60;8.10;;;;;;;16.71;99.38;98519.97;79444;1296;3011783;-64
2023/10/21 05:24:57;;;;;;;17.90;8.50;;;;;;;16.93;97.45;98506.60;78165;1295;3050578;-62
2023/10/21 05:27:24;;;;;;;23.40;10.30;;;;;;;16.75;98.00;98506.64;79741;1295;3019005;-62
2023/10/21 05:29:50;;;;;;;23.60;9.70;;;;;;;16.49;99.64;98525.29;79681;1298;3011609;-63
2023/10/21 05:32:18;;;;;;;19.20;8.40;;;;;;;16.36;100.00;98530.67;78357;1298;3029904;-67
2023/10/21 05:34:45;;;;;;;19.10;8.90;;;;;;;16.52;99.98;98516.77;79537;1295;3013535;-65
2023/10/21 05:37:11;;;;;;;20.90;10.30;;;;;;;16.64;99.56;98507.39;79716;1294;3011695;-64
2023/10/21 05:39:40;;;;;;;27.70;11.50;;;;;;;16.49;99.84;98514.16;78166;1300;3025809;-63
2023/10/21 05:42:07;;;;;;;27.60;12.20;;;;;;;16.23;100.00;98529.99;79640;1295;3013305;-65
2023/10/21 05:44:33;;;;;;;21.40;8.90;;;;;;;16.21;100.00;98532.69;79477;1295;3011531;-63
2023/10/21 05:47:01;;;;;;;28.70;10.90;;;;;;;16.42;100.00;98526.01;78201;1298;3050691;-64
2023/10/21 05:49:28;;;;;;;25.00;12.10;;;;;;;16.38;100.00;98530.80;79511;1295;3020991;-67
2023/10/21 05:51:54;;;;;;;23.40;12.10;;;;;;;16.23;100.00;98536.52;79429;1298;3011439;-65
2023/10/21 05:54:23;;;;;;;19.90;9.20;;;;;;;16.24;100.00;98538.08;78337;1298;3025767;-64
2023/10/21 05:56:49;;;;;;;27.50;10.90;;;;;;;16.39;100.00;98535.52;79627;1295;3011512;-61
2023/10/21 05:59:16;;;;;;;25.00;9.70;;;;;;;16.45;100.00;98542.68;79429;1295;3011736;-66
2023/10/21 06:01:44;;;;;;;21.70;10.20;;;;;;;16.36;100.00;98532.95;78354;1298;3053235;-62
2023/10/21 06:04:10;;;;;;;18.70;7.80;;;;;;;16.32;100.00;98534.79;79679;1295;3012838;-65
2023/10/21 06:06:37;;;;;;;22.20;11.50;;;;;;;16.49;100.00;98538.73;79410;1298;3011591;-64
2023/10/21 06:09:05;;;;;;;25.90;12.40;;;;;;;16.56;99.97;98526.03;78084;1295;3025743;-66
2023/10/21 06:11:31;;;;;;;24.10;13.10;;;;;;;16.35;100.00;98541.52;79580;1298;3018452;-61
2023/10/21 06:13:58;;;;;;;21.00;9.50;;;;;;;16.20;100.00;98542.34;79373;1295;3011651;-65
2023/10/21 06:16:26;;;;;;;20.10;9.50;;;;;;;16.18;100.00;98531.00;78274;1299;3027405;-67
2023/10/21 06:18:53;;;;;;;26.00;11.60;;;;;;;16.59;99.95;98528.44;79541;1295;3013332;-69
2023/10/21 06:21:19;;;;;;;23.10;12.10;;;;;;;16.49;100.00;98517.08;79370;1295;3011635;-70
2023/10/21 06:23:47;;;;;;;23.90;10.90;;;;;;;16.32;100.00;98530.36;78310;1298;3028776;-70
2023/10/21 06:26:14;;;;;;;16.70;8.00;;;;;;;16.20;100.00;98523.96;79521;1298;3011823;-68
2023/10/21 06:28:40;;;;;;;20.30;10.30;;;;;;;16.53;99.93;98515.34;79558;1295;3013034;-72
2023/10/21 06:31:08;;;;;;;22.20;10.90;;;;;;;16.64;99.10;98503.52;78381;1295;3025764;-66
2023/10/21 06:33:35;;;;;;;27.70;10.50;;;;;;;16.68;98.82;98500.40;79500;1298;3018449;-68
2023/10/21 06:36:01;;;;;;;24.00;10.80;;;;;;;16.70;98.06;98502.93;79756;1295;3011410;-64
2023/10/21 06:38:30;;;;;;;19.70;8.30;;;;;;;16.48;98.93;98519.65;78373;1298;3027117;-68
2023/10/21 06:40:57;;;;;;;20.10;8.80;;;;;;;16.62;99.05;98518.35;79600;1296;3013168;-67
2023/10/21 06:43:24;;;;;;;24.10;10.20;;;;;;;16.79;97.61;98508.41;79455;1296;3011824;-65
2023/10/21 06:45:52;;;;;;;27.30;9.90;;;;;;;16.63;97.54;98514.33;78533;1298;3053169;-63
2023/10/21 06:48:18;;;;;;;22.10;8.60;;;;;;;16.50;98.94;98507.17;79601;1294;3018994;-65
2023/10/21 06:50:45;;;;;;;18.90;7.70;;;;;;;16.53;99.61;98504.45;79362;1298;3012714;-66
2023/10/21 06:53:14;;;;;;;14.30;7.90;;;;;;;16.91;96.96;98502.06;78326;1298;3029059;-69
2023/10/21 06:55:42;;;;;;;21.40;9.60;;;;;;;16.94;96.11;98501.73;79420;1295;3012708;-71
2023/10/21 06:58:09;;;;;;;20.10;9.10;;;;;;;16.92;95.92;98505.83;79692;1295;3011852;-72
2023/10/21 07:00:37;;;;;;;22.20;7.50;;;;;;;16.83;96.36;98501.92;78483;1298;3053773;-67
2023/10/21 07:03:05;;;;;;;16.40;7.60;;;;;;;16.91;96.71;98497.98;79805;1295;3013049;-67
2023/10/21 07:05:31;;;;;;;17.00;8.80;;;;;;;17.13;95.02;98495.57;79412;1295;3011458;-69
2023/10/21 07:07:59;;;;;;;22.40;10.20;;;;;;;17.06;94.58;98499.78;78370;1300;3049281;-63
2023/10/21 07:10:29;;;;;;;22.30;10.30;;;;;;;17.00;95.13;98497.43;79460;1295;3013574;-69
2023/10/21 07:12:58;;;;;;;21.70;7.10;;;;;;;16.98;95.47;98501.73;79265;1298;3013262;-67
2023/10/21 07:15:27;;;;;;;15.40;7.60;;;;;;;17.38;93.86;98501.65;79607;1298;3013419;-66
2023/10/21 07:17:57;;;;;;;22.50;8.50;;;;;;;17.50;92.55;98506.54;78325;1300;3068801;-67
2023/10/21 07:20:25;;;;;;;19.00;8.90;;;;;;;17.47;92.31;98511.70;79526;1295;3012907;-68
2023/10/21 07:22:54;;;;;;;20.50;9.50;;;;;;;17.26;93.46;98513.26;78982;1298;3013953;-64
2023/10/21 07:25:21;;;;;;;20.10;7.00;;;;;;;17.21;94.20;98515.02;79615;1295;3013836;-68
2023/10/21 07:27:47;;;;;;;18.80;8.60;;;;;;;17.61;92.68;98516.79;79354;1295;3013369;-65
2023/10/21 07:30:15;;;;;;;19.00;8.70;;;;;;;18.01;90.20;98515.40;78487;1295;3030267;-66
2023/10/21 07:32:42;;;;;;;15.80;8.40;;;;;;;17.84;90.30;98518.84;79589;1298;3018494;-66
2023/10/21 07:35:09;;;;;;;20.80;9.60;;;;;;;17.99;89.75;98514.98;79529;1295;3012966;-67
2023/10/21 07:37:37;;;;;;;16.70;6.80;;;;;;;17.88;89.79;98519.42;78383;1296;3028221;-70
2023/10/21 07:42:46;;;;;;;19.00;8.70;;;;;;;18.31;88.19;98522.08;80109;1304;3011669;-68
2023/10/21 07:45:14;;;;;;;24.90;11.30;;;;;;;18.31;87.97;98522.25;79410;1303;3018193;-70
2023/10/21 07:47:41;;;;;;;22.60;9.00;;;;;;;18.29;87.90;98526.84;79045;1305;3011908;-66
2023/10/21 07:50:10;;;;;;;19.00;8.30;;;;;;;18.13;88.00;98527.77;77903;1304;3052984;-66
2023/10/21 07:52:37;;;;;;;12.90;6.40;;;;;;;18.00;88.77;98532.91;79476;1300;3013429;-64
2023/10/21 07:55:03;;;;;;;16.50;7.40;;;;;;;18.42;87.52;98541.56;77083;1300;3191404;-65
2023/10/21 07:57:32;;;;;;;15.00;7.90;;;;;;;18.79;85.01;98539.63;78360;1298;3025906;-64
2023/10/21 07:59:59;;;;;;;15.50;8.30;;;;;;;18.92;83.81;98540.08;79309;1300;3013214;-63
2023/10/21 08:02:26;;;;;;;18.00;8.30;;;;;;;18.73;84.38;98542.12;79498;1295;3011631;-64
2023/10/21 08:04:55;;;;;;;14.40;7.80;;;;;;;18.47;86.01;98538.84;78095;1300;3025750;-64
2023/10/21 08:07:21;;;;;;;16.00;6.20;;;;;;;18.37;87.05;98539.44;79609;1297;3012580;-66
2023/10/21 08:09:49;;;;;;;18.10;7.20;;;;;;;18.76;85.17;98549.77;79527;1296;3011813;-66
2023/10/21 08:12:16;;;;;;;20.70;7.40;;;;;;;18.92;83.65;98552.05;78194;1299;3050477;-66
2023/10/21 08:14:43;;;;;;;16.30;7.30;;;;;;;18.95;83.51;98546.88;79436;1297;3018653;-67
2023/10/21 08:17:09;;;;;;;21.60;8.30;;;;;;;19.00;83.24;98549.05;79376;1296;3011608;-68
2023/10/21 08:19:37;;;;;;;19.70;8.50;;;;;;;18.72;84.39;98569.55;78379;1300;3027959;-66
2023/10/21 08:22:05;;;;;;;17.90;6.20;;;;;;;18.93;83.84;98561.57;79632;1295;3012929;-71
2023/10/21 08:24:32;;;;;;;18.50;7.60;;;;;;;19.16;83.02;98555.16;79382;1295;3011548;-65
2023/10/21 08:27:00;;;;;;;28.70;7.60;;;;;;;19.49;81.25;98559.36;78229;1298;3049805;-67
2023/10/21 08:29:26;;;;;;;18.90;7.70;;;;;;;19.44;81.28;98567.13;79334;1295;3013249;-67
2023/10/21 08:31:53;;;;;;;13.90;7.70;;;;;;;19.45;81.24;98567.00;79533;1296;3013299;-67
2023/10/21 08:34:22;;;;;;;18.60;7.90;;;;;;;19.38;81.45;98565.33;78721;1301;3025401;-68
2023/10/21 08:36:49;;;;;;;19.00;5.90;;;;;;;19.33;81.69;98560.35;79521;1300;3015784;-67
2023/10/21 08:39:16;;;;;;;15.00;5.90;;;;;;;19.64;80.44;98561.56;79286;1295;3013669;-68
2023/10/21 08:41:43;;;;;;;13.10;7.40;;;;;;;19.91;78.86;98564.79;78247;1296;3049156;-67
2023/10/21 08:44:10;;;;;;;16.80;7.50;;;;;;;19.87;78.47;98567.11;79362;1298;3012922;-69
2023/10/21 08:46:37;;;;;;;19.60;7.60;;;;;;;19.84;79.02;98559.81;79687;1297;3011655;-70
2023/10/21 08:49:05;;;;;;;19.50;8.80;;;;;;;19.68;79.34;98561.23;78201;1299;3028684;-65
2023/10/21 08:51:35;;;;;;;19.80;8.10;;;;;;;19.59;79.75;98569.60;79636;1298;3013361;-67
2023/10/21 08:54:04;;;;;;;16.40;5.60;;;;;;;19.58;80.32;98561.20;78904;1295;3013220;-66
2023/10/21 08:56:35;;;;;;;18.90;6.20;;;;;;;20.12;78.23;98567.68;79585;1296;3011634;-66
2023/10/21 08:59:03;;;;;;;21.70;8.30;;;;;;;20.70;75.71;98560.83;78307;1296;3052011;-69
2023/10/21 09:01:31;;;;;;;18.10;8.10;;;;;;;20.50;75.91;98557.45;79786;1295;3012555;-67
2023/10/21 09:03:57;;;;;;;20.70;8.10;;;;;;;20.45;76.03;98556.66;79518;1300;3012862;-70
2023/10/21 09:06:25;;;;;;;16.90;8.10;;;;;;;20.40;76.21;98546.50;78311;1300;3070171;-65
2023/10/21 09:08:52;;;;;;;19.70;8.00;;;;;;;20.26;76.72;98549.61;79348;1296;3020647;-69
2023/10/21 09:11:20;;;;;;;27.70;9.00;;;;;;;20.22;77.00;98561.52;79245;1296;3013543;-70
2023/10/21 09:13:49;;;;;;;16.30;5.80;;;;;;;20.30;77.23;98554.00;78146;1296;3052180;-66
2023/10/21 09:16:21;;;;;;;17.10;5.60;;;;;;;21.13;74.51;98564.69;79560;1300;3011528;-69
2023/10/21 09:19:05;;;;;;;21.10;6.80;;;;;;;21.28;72.04;98565.91;78203;1300;3052664;-68
2023/10/21 09:21:44;;;;;;;12.80;6.60;;;;;;;21.17;72.50;98568.80;78218;1295;3068904;-65
2023/10/21 09:24:19;;;;;;;11.90;6.20;;;;;;;21.22;72.26;98570.69;78042;1299;3050665;-64
2023/10/21 09:26:49;;;;;;;16.60;6.30;;;;;;;21.23;71.89;98564.04;78971;1295;3011679;-65
2023/10/21 09:29:20;;;;;;;16.70;7.30;;;;;;;21.28;72.19;98566.11;79654;1298;3014861;-68
2023/10/21 09:31:49;;;;;;;17.30;6.90;;;;;;;21.17;72.72;98567.60;78273;1295;3053304;-62
2023/10/21 09:34:32;;;;;;;19.70;7.50;;;;;;;21.21;72.58;98566.63;79535;1298;3014258;-66
2023/10/21 09:37:02;;;;;;;13.40;6.20;;;;;;;21.35;71.68;98570.16;78196;1297;3052509;-67
2023/10/21 09:39:43;;;;;;;15.30;5.90;;;;;;;21.42;70.11;98574.32;79396;1297;3013556;-66
2023/10/21 09:42:10;;;;;;;15.50;5.70;;;;;;;21.49;69.56;98564.11;78047;1296;3050723;-67
2023/10/21 09:44:38;;;;;;;17.50;6.20;;;;;;;21.49;69.81;98561.30;79217;1296;3020830;-64
2023/10/21 09:47:05;;;;;;;13.70;5.70;;;;;;;21.55;69.22;98563.84;79443;1298;3011434;-67
2023/10/21 09:49:38;;;;;;;15.30;5.80;;;;;;;21.53;68.83;98563.14;78104;1298;3049454;-67
2023/10/21 09:52:11;;;;;;;14.40;6.30;;;;;;;21.40;70.22;98559.66;79302;1295;3012021;-66
2023/10/21 09:54:44;;;;;;;11.50;6.40;;;;;;;21.44;70.28;98564.03;77959;1301;3052741;-66
2023/10/21 09:57:11;;;;;;;;;;;;;;;21.51;70.31;98567.30;79362;1298;3013060;-66
2023/10/21 09:59:39;;;;;;;19.30;5.50;;;;;;;21.50;70.26;98568.27;77993;1300;3050097;-68
2023/10/21 10:02:09;;;;;;;16.50;5.40;;;;;;;21.55;69.43;98584.27;79438;1295;3013538;-67
2023/10/21 10:04:37;;;;;;;14.20;5.60;;;;;;;21.56;68.55;98575.73;78100;1300;3052634;-67
2023/10/21 10:07:06;;;;;;;14.50;5.30;;;;;;;21.74;68.21;98580.72;79657;1301;3013047;-64
2023/10/21 10:09:37;;;;;;;19.40;5.20;;;;;;;21.79;67.20;98583.58;78797;1300;3011554;-66
2023/10/21 10:12:07;;;;;;;15.70;5.40;;;;;;;21.73;67.15;98590.65;79456;1300;3012949;-65
2023/10/21 10:14:36;;;;;;;11.90;5.40;;;;;;;21.69;67.17;98589.91;78279;1300;3068781;-68
2023/10/21 10:17:06;;;;;;;14.20;5.40;;;;;;;21.75;66.83;98586.66;79413;1298;3014087;-68
2023/10/21 10:19:38;;;;;;;14.00;6.20;;;;;;;21.78;66.38;98587.39;78492;1298;3047863;-67
2023/10/21 10:22:35;;;;;;;20.40;6.40;;;;;;;21.90;66.15;98579.52;79524;1298;3011485;-66
2023/10/21 10:25:15;;;;;;;13.00;5.70;;;;;;;22.15;65.59;98580.08;78258;1299;3051305;-72
2023/10/21 10:27:43;;;;;;;14.90;5.10;;;;;;;22.27;65.55;98581.89;78381;1300;3052194;-69
2023/10/21 10:30:15;;;;;;;14.00;5.80;;;;;;;22.43;65.04;98579.27;79395;1301;3013605;-67
2023/10/21 10:32:43;;;;;;;17.00;5.50;;;;;;;22.48;64.48;98580.02;78193;1300;3050887;-67
2023/10/21 10:35:09;;;;;;;15.40;5.80;;;;;;;22.60;64.26;98579.02;79407;1298;3013077;-67
2023/10/21 10:37:37;;;;;;;17.90;6.70;;;;;;;22.65;63.97;98581.56;79239;1301;3011829;-65
2023/10/21 10:40:18;;;;;;;17.20;5.60;;;;;;;22.62;63.62;98583.85;78235;1296;3049638;-65
2023/10/21 10:42:46;;;;;;;12.20;5.40;;;;;;;22.58;63.63;98579.01;78322;1298;3053363;-69
2023/10/21 10:45:13;;;;;;;15.90;5.40;;;;;;;22.66;63.01;98578.37;79395;1300;3013393;-61
2023/10/21 10:47:39;;;;;;;19.00;5.50;;;;;;;22.81;62.94;98581.17;79489;1298;3012012;-65
2023/10/21 10:50:16;;;;;;;11.10;5.40;;;;;;;22.89;62.60;98582.34;78178;1298;3026757;-64
2023/10/21 10:52:44;;;;;;;15.50;5.20;;;;;;;23.00;62.53;98578.63;78147;1297;3049176;-65
2023/10/21 10:55:11;;;;;;;20.00;5.50;;;;;;;23.00;62.08;98582.54;79445;1296;3013045;-66
2023/10/21 10:57:38;;;;;;;13.30;5.50;;;;;;;23.04;62.26;98584.55;79565;1296;3011695;-64
2023/10/21 11:00:10;;;;;;;14.20;5.00;;;;;;;23.09;62.19;98588.54;78249;1296;3026101;-66
2023/10/21 11:02:43;;;;;;;12.90;5.60;;;;;;;23.14;61.68;98584.84;79580;1298;3011720;-65
2023/10/21 11:05:20;;;;;;;16.30;5.40;;;;;;;23.26;61.64;98579.41;78328;1297;3049638;-67
2023/10/21 11:07:49;;;;;;;16.10;5.80;;;;;;;23.43;61.68;98576.73;78372;1295;3056599;-64
2023/10/21 11:10:20;;;;;;;18.40;5.10;;;;;;;23.61;61.07;98576.95;79535;1296;3011935;-69
2023/10/21 11:12:48;;;;;;;13.70;5.20;;;;;;;23.69;60.41;98581.45;78338;1295;3053461;-64
2023/10/21 11:15:16;;;;;;;15.20;4.60;;;;;;;23.67;59.72;98581.41;79618;1295;3020589;-70
2023/10/21 11:17:46;;;;;;;14.80;5.20;;;;;;;23.65;59.52;98584.11;79898;1300;3011675;-64